sensor_id;sensor_type;location;lat;lon;timestamp;P1;durP1;ratioP1;P2;durP2;ratioP2
84897;SDS011;75162;42.120;21.734;2024-02-26T00:00:42;15.13;;;8.15;;
84897;SDS011;75162;42.120;21.734;2024-02-26T00:03:08;13.70;;;8.88;;
84897;SDS011;75162;42.120;21.734;2024-02-26T00:05:34;11.75;;;7.70;;
84897;SDS011;75162;42.120;21.734;2024-02-26T00:08:00;12.65;;;7.40;;
84897;SDS011;75162;42.120;21.734;2024-02-26T00:10:26;12.45;;;7.35;;
84897;SDS011;75162;42.120;21.734;2024-02-26T00:12:53;14.77;;;7.05;;
84897;SDS011;75162;42.120;21.734;2024-02-26T00:15:19;10.68;;;5.95;;
84897;SDS011;75162;42.120;21.734;2024-02-26T00:17:45;11.35;;;5.85;;
84897;SDS011;75162;42.120;21.734;2024-02-26T00:20:11;12.10;;;5.72;;
84897;SDS011;75162;42.120;21.734;2024-02-26T00:22:38;8.88;;;5.43;;
84897;SDS011;75162;42.120;21.734;2024-02-26T00:25:05;8.30;;;4.72;;
84897;SDS011;75162;42.120;21.734;2024-02-26T00:27:31;13.10;;;5.20;;
84897;SDS011;75162;42.120;21.734;2024-02-26T00:29:57;9.10;;;4.70;;
84897;SDS011;75162;42.120;21.734;2024-02-26T00:32:23;12.02;;;5.55;;
84897;SDS011;75162;42.120;21.734;2024-02-26T00:34:49;11.25;;;5.25;;
84897;SDS011;75162;42.120;21.734;2024-02-26T00:37:15;10.93;;;5.53;;
84897;SDS011;75162;42.120;21.734;2024-02-26T00:39:41;14.20;;;5.55;;
84897;SDS011;75162;42.120;21.734;2024-02-26T00:42:08;10.52;;;4.93;;
84897;SDS011;75162;42.120;21.734;2024-02-26T00:44:34;9.02;;;4.88;;
84897;SDS011;75162;42.120;21.734;2024-02-26T00:47:00;7.55;;;5.10;;
84897;SDS011;75162;42.120;21.734;2024-02-26T00:49:27;7.90;;;5.68;;
84897;SDS011;75162;42.120;21.734;2024-02-26T00:51:53;12.10;;;6.30;;
84897;SDS011;75162;42.120;21.734;2024-02-26T00:54:19;8.60;;;5.88;;
84897;SDS011;75162;42.120;21.734;2024-02-26T00:56:45;7.70;;;5.18;;
84897;SDS011;75162;42.120;21.734;2024-02-26T00:59:11;8.40;;;5.85;;
84897;SDS011;75162;42.120;21.734;2024-02-26T01:01:37;8.80;;;5.28;;
84897;SDS011;75162;42.120;21.734;2024-02-26T01:04:04;8.68;;;5.45;;
84897;SDS011;75162;42.120;21.734;2024-02-26T01:06:30;14.30;;;5.43;;
84897;SDS011;75162;42.120;21.734;2024-02-26T01:08:56;7.47;;;5.13;;
84897;SDS011;75162;42.120;21.734;2024-02-26T01:11:22;13.15;;;5.68;;
84897;SDS011;75162;42.120;21.734;2024-02-26T01:13:48;12.30;;;5.40;;
84897;SDS011;75162;42.120;21.734;2024-02-26T01:16:21;10.27;;;5.60;;
84897;SDS011;75162;42.120;21.734;2024-02-26T01:18:47;11.73;;;5.57;;
84897;SDS011;75162;42.120;21.734;2024-02-26T01:21:13;12.25;;;5.57;;
84897;SDS011;75162;42.120;21.734;2024-02-26T01:23:39;8.98;;;5.25;;
84897;SDS011;75162;42.120;21.734;2024-02-26T01:26:05;7.70;;;5.13;;
84897;SDS011;75162;42.120;21.734;2024-02-26T01:28:31;9.25;;;5.10;;
84897;SDS011;75162;42.120;21.734;2024-02-26T01:30:57;11.07;;;4.88;;
84897;SDS011;75162;42.120;21.734;2024-02-26T01:33:25;8.60;;;5.78;;
84897;SDS011;75162;42.120;21.734;2024-02-26T01:35:51;8.98;;;5.57;;
84897;SDS011;75162;42.120;21.734;2024-02-26T01:38:18;11.35;;;6.47;;
84897;SDS011;75162;42.120;21.734;2024-02-26T01:40:44;13.13;;;7.10;;
84897;SDS011;75162;42.120;21.734;2024-02-26T01:43:10;11.32;;;7.63;;
84897;SDS011;75162;42.120;21.734;2024-02-26T01:45:36;17.38;;;8.38;;
84897;SDS011;75162;42.120;21.734;2024-02-26T01:48:02;12.32;;;7.78;;
84897;SDS011;75162;42.120;21.734;2024-02-26T01:50:29;8.93;;;6.05;;
84897;SDS011;75162;42.120;21.734;2024-02-26T01:52:55;8.65;;;5.43;;
84897;SDS011;75162;42.120;21.734;2024-02-26T01:55:22;9.70;;;6.13;;
84897;SDS011;75162;42.120;21.734;2024-02-26T01:57:49;10.10;;;5.88;;
84897;SDS011;75162;42.120;21.734;2024-02-26T02:00:17;13.40;;;6.47;;
84897;SDS011;75162;42.120;21.734;2024-02-26T02:02:44;10.73;;;6.03;;
84897;SDS011;75162;42.120;21.734;2024-02-26T02:05:12;10.48;;;5.85;;
84897;SDS011;75162;42.120;21.734;2024-02-26T02:07:38;13.32;;;5.85;;
84897;SDS011;75162;42.120;21.734;2024-02-26T02:10:05;8.45;;;5.07;;
84897;SDS011;75162;42.120;21.734;2024-02-26T02:12:32;6.20;;;4.75;;
84897;SDS011;75162;42.120;21.734;2024-02-26T02:14:59;11.35;;;4.93;;
84897;SDS011;75162;42.120;21.734;2024-02-26T02:17:25;6.45;;;4.82;;
84897;SDS011;75162;42.120;21.734;2024-02-26T02:19:52;8.43;;;5.13;;
84897;SDS011;75162;42.120;21.734;2024-02-26T02:22:18;7.78;;;5.25;;
84897;SDS011;75162;42.120;21.734;2024-02-26T02:24:45;7.60;;;5.03;;
84897;SDS011;75162;42.120;21.734;2024-02-26T02:27:11;8.50;;;4.97;;
84897;SDS011;75162;42.120;21.734;2024-02-26T02:29:37;9.75;;;4.60;;
84897;SDS011;75162;42.120;21.734;2024-02-26T02:32:03;10.57;;;4.85;;
84897;SDS011;75162;42.120;21.734;2024-02-26T02:34:30;9.77;;;5.00;;
84897;SDS011;75162;42.120;21.734;2024-02-26T02:36:57;6.35;;;4.63;;
84897;SDS011;75162;42.120;21.734;2024-02-26T02:39:23;10.45;;;5.13;;
84897;SDS011;75162;42.120;21.734;2024-02-26T02:41:49;9.13;;;4.75;;
84897;SDS011;75162;42.120;21.734;2024-02-26T02:44:15;6.70;;;4.20;;
84897;SDS011;75162;42.120;21.734;2024-02-26T02:46:41;5.82;;;4.43;;
84897;SDS011;75162;42.120;21.734;2024-02-26T02:49:08;8.68;;;4.30;;
84897;SDS011;75162;42.120;21.734;2024-02-26T02:51:34;8.30;;;4.60;;
84897;SDS011;75162;42.120;21.734;2024-02-26T02:54:01;11.30;;;5.28;;
84897;SDS011;75162;42.120;21.734;2024-02-26T02:56:27;7.50;;;4.20;;
84897;SDS011;75162;42.120;21.734;2024-02-26T02:58:53;6.75;;;4.63;;
84897;SDS011;75162;42.120;21.734;2024-02-26T03:01:19;10.88;;;5.00;;
84897;SDS011;75162;42.120;21.734;2024-02-26T03:03:45;7.28;;;4.63;;
84897;SDS011;75162;42.120;21.734;2024-02-26T03:06:11;8.52;;;4.70;;
84897;SDS011;75162;42.120;21.734;2024-02-26T03:08:37;10.77;;;5.07;;
84897;SDS011;75162;42.120;21.734;2024-02-26T03:11:04;9.05;;;5.15;;
84897;SDS011;75162;42.120;21.734;2024-02-26T03:13:31;6.80;;;4.65;;
84897;SDS011;75162;42.120;21.734;2024-02-26T03:15:57;9.32;;;5.45;;
84897;SDS011;75162;42.120;21.734;2024-02-26T03:18:23;7.97;;;5.15;;
84897;SDS011;75162;42.120;21.734;2024-02-26T03:20:49;6.80;;;4.55;;
84897;SDS011;75162;42.120;21.734;2024-02-26T03:23:15;11.45;;;5.32;;
84897;SDS011;75162;42.120;21.734;2024-02-26T03:25:42;8.50;;;5.03;;
84897;SDS011;75162;42.120;21.734;2024-02-26T03:28:08;7.63;;;5.40;;
84897;SDS011;75162;42.120;21.734;2024-02-26T03:30:34;9.20;;;5.38;;
84897;SDS011;75162;42.120;21.734;2024-02-26T03:33:01;11.32;;;6.05;;
84897;SDS011;75162;42.120;21.734;2024-02-26T03:35:27;7.95;;;5.72;;
84897;SDS011;75162;42.120;21.734;2024-02-26T03:37:53;9.43;;;5.30;;
84897;SDS011;75162;42.120;21.734;2024-02-26T03:40:19;7.93;;;5.07;;
84897;SDS011;75162;42.120;21.734;2024-02-26T03:42:46;9.00;;;4.95;;
84897;SDS011;75162;42.120;21.734;2024-02-26T03:45:12;8.65;;;5.65;;
84897;SDS011;75162;42.120;21.734;2024-02-26T03:47:38;10.70;;;5.80;;
84897;SDS011;75162;42.120;21.734;2024-02-26T03:50:07;8.07;;;5.88;;
84897;SDS011;75162;42.120;21.734;2024-02-26T03:52:33;10.50;;;5.55;;
84897;SDS011;75162;42.120;21.734;2024-02-26T03:54:59;9.13;;;5.47;;
84897;SDS011;75162;42.120;21.734;2024-02-26T03:57:25;9.13;;;6.18;;
84897;SDS011;75162;42.120;21.734;2024-02-26T03:59:51;9.32;;;5.70;;
84897;SDS011;75162;42.120;21.734;2024-02-26T04:02:18;9.40;;;6.28;;
84897;SDS011;75162;42.120;21.734;2024-02-26T04:04:45;10.43;;;5.55;;
84897;SDS011;75162;42.120;21.734;2024-02-26T04:07:11;10.55;;;5.30;;
84897;SDS011;75162;42.120;21.734;2024-02-26T04:09:38;10.68;;;6.05;;
84897;SDS011;75162;42.120;21.734;2024-02-26T04:12:04;10.70;;;6.18;;
84897;SDS011;75162;42.120;21.734;2024-02-26T04:14:30;13.32;;;6.68;;
84897;SDS011;75162;42.120;21.734;2024-02-26T04:16:57;11.60;;;6.15;;
84897;SDS011;75162;42.120;21.734;2024-02-26T04:19:23;10.45;;;6.15;;
84897;SDS011;75162;42.120;21.734;2024-02-26T04:21:49;11.70;;;6.65;;
84897;SDS011;75162;42.120;21.734;2024-02-26T04:24:15;14.75;;;6.63;;
84897;SDS011;75162;42.120;21.734;2024-02-26T04:26:41;11.18;;;6.25;;
84897;SDS011;75162;42.120;21.734;2024-02-26T04:29:07;12.13;;;6.03;;
84897;SDS011;75162;42.120;21.734;2024-02-26T04:31:33;8.82;;;6.07;;
84897;SDS011;75162;42.120;21.734;2024-02-26T04:34:00;9.35;;;6.00;;
84897;SDS011;75162;42.120;21.734;2024-02-26T04:36:26;11.45;;;6.93;;
84897;SDS011;75162;42.120;21.734;2024-02-26T04:38:52;10.52;;;6.28;;
84897;SDS011;75162;42.120;21.734;2024-02-26T04:41:20;9.55;;;5.45;;
84897;SDS011;75162;42.120;21.734;2024-02-26T04:43:46;10.98;;;5.55;;
84897;SDS011;75162;42.120;21.734;2024-02-26T04:46:12;10.05;;;5.90;;
84897;SDS011;75162;42.120;21.734;2024-02-26T04:48:39;13.88;;;6.70;;
84897;SDS011;75162;42.120;21.734;2024-02-26T04:51:06;10.93;;;6.00;;
84897;SDS011;75162;42.120;21.734;2024-02-26T04:53:33;11.50;;;6.20;;
84897;SDS011;75162;42.120;21.734;2024-02-26T04:55:59;11.48;;;7.20;;
84897;SDS011;75162;42.120;21.734;2024-02-26T04:58:25;12.30;;;6.53;;
84897;SDS011;75162;42.120;21.734;2024-02-26T05:00:51;11.75;;;6.63;;
84897;SDS011;75162;42.120;21.734;2024-02-26T05:03:17;11.88;;;6.82;;
84897;SDS011;75162;42.120;21.734;2024-02-26T05:05:43;13.80;;;7.85;;
84897;SDS011;75162;42.120;21.734;2024-02-26T05:08:09;14.02;;;7.78;;
84897;SDS011;75162;42.120;21.734;2024-02-26T05:10:36;13.23;;;7.20;;
84897;SDS011;75162;42.120;21.734;2024-02-26T05:13:05;16.23;;;8.18;;
84897;SDS011;75162;42.120;21.734;2024-02-26T05:15:31;18.63;;;9.07;;
84897;SDS011;75162;42.120;21.734;2024-02-26T05:17:57;15.45;;;7.38;;
84897;SDS011;75162;42.120;21.734;2024-02-26T05:20:24;15.23;;;7.80;;
84897;SDS011;75162;42.120;21.734;2024-02-26T05:22:50;13.15;;;8.07;;
84897;SDS011;75162;42.120;21.734;2024-02-26T05:25:16;14.57;;;8.02;;
84897;SDS011;75162;42.120;21.734;2024-02-26T05:27:43;18.10;;;7.72;;
84897;SDS011;75162;42.120;21.734;2024-02-26T05:30:09;21.73;;;10.52;;
84897;SDS011;75162;42.120;21.734;2024-02-26T05:32:36;24.33;;;11.50;;
84897;SDS011;75162;42.120;21.734;2024-02-26T05:35:02;17.35;;;9.57;;
84897;SDS011;75162;42.120;21.734;2024-02-26T05:37:29;24.67;;;11.63;;
84897;SDS011;75162;42.120;21.734;2024-02-26T05:39:55;24.83;;;12.38;;
84897;SDS011;75162;42.120;21.734;2024-02-26T05:42:21;22.88;;;12.05;;
84897;SDS011;75162;42.120;21.734;2024-02-26T05:44:47;22.45;;;10.52;;
84897;SDS011;75162;42.120;21.734;2024-02-26T05:47:13;14.23;;;9.32;;
84897;SDS011;75162;42.120;21.734;2024-02-26T05:49:39;19.30;;;9.55;;
84897;SDS011;75162;42.120;21.734;2024-02-26T05:52:06;22.77;;;10.93;;
84897;SDS011;75162;42.120;21.734;2024-02-26T05:54:32;13.65;;;9.00;;
84897;SDS011;75162;42.120;21.734;2024-02-26T05:56:58;17.98;;;9.63;;
84897;SDS011;75162;42.120;21.734;2024-02-26T05:59:24;22.00;;;10.75;;
84897;SDS011;75162;42.120;21.734;2024-02-26T06:01:50;20.45;;;11.45;;
84897;SDS011;75162;42.120;21.734;2024-02-26T06:04:16;15.75;;;9.50;;
84897;SDS011;75162;42.120;21.734;2024-02-26T06:06:43;21.25;;;10.30;;
84897;SDS011;75162;42.120;21.734;2024-02-26T06:09:10;19.67;;;9.73;;
84897;SDS011;75162;42.120;21.734;2024-02-26T06:11:37;18.70;;;10.45;;
84897;SDS011;75162;42.120;21.734;2024-02-26T06:14:03;15.48;;;9.30;;
84897;SDS011;75162;42.120;21.734;2024-02-26T06:16:29;20.25;;;10.52;;
84897;SDS011;75162;42.120;21.734;2024-02-26T06:18:55;20.55;;;9.20;;
84897;SDS011;75162;42.120;21.734;2024-02-26T06:21:21;16.60;;;10.45;;
84897;SDS011;75162;42.120;21.734;2024-02-26T06:23:47;16.77;;;9.38;;
84897;SDS011;75162;42.120;21.734;2024-02-26T06:26:15;14.18;;;9.00;;
84897;SDS011;75162;42.120;21.734;2024-02-26T06:28:41;14.57;;;8.77;;
84897;SDS011;75162;42.120;21.734;2024-02-26T06:31:08;17.75;;;9.60;;
84897;SDS011;75162;42.120;21.734;2024-02-26T06:33:34;18.30;;;10.27;;
84897;SDS011;75162;42.120;21.734;2024-02-26T06:36:00;15.18;;;9.90;;
84897;SDS011;75162;42.120;21.734;2024-02-26T06:38:26;15.63;;;9.00;;
84897;SDS011;75162;42.120;21.734;2024-02-26T06:40:52;13.35;;;8.77;;
84897;SDS011;75162;42.120;21.734;2024-02-26T06:43:19;12.45;;;7.88;;
84897;SDS011;75162;42.120;21.734;2024-02-26T06:45:45;13.15;;;7.75;;
84897;SDS011;75162;42.120;21.734;2024-02-26T06:48:11;12.98;;;9.65;;
84897;SDS011;75162;42.120;21.734;2024-02-26T06:50:37;12.90;;;8.05;;
84897;SDS011;75162;42.120;21.734;2024-02-26T06:53:03;16.10;;;9.45;;
84897;SDS011;75162;42.120;21.734;2024-02-26T06:55:31;17.70;;;9.65;;
84897;SDS011;75162;42.120;21.734;2024-02-26T06:57:57;15.10;;;9.70;;
84897;SDS011;75162;42.120;21.734;2024-02-26T07:00:23;18.70;;;11.65;;
84897;SDS011;75162;42.120;21.734;2024-02-26T07:02:50;16.45;;;10.35;;
84897;SDS011;75162;42.120;21.734;2024-02-26T07:05:16;15.30;;;8.38;;
84897;SDS011;75162;42.120;21.734;2024-02-26T07:07:42;16.52;;;7.95;;
84897;SDS011;75162;42.120;21.734;2024-02-26T07:10:09;14.40;;;7.70;;
84897;SDS011;75162;42.120;21.734;2024-02-26T07:12:37;13.45;;;7.10;;
84897;SDS011;75162;42.120;21.734;2024-02-26T07:15:03;11.77;;;6.05;;
84897;SDS011;75162;42.120;21.734;2024-02-26T07:17:32;13.65;;;6.55;;
84897;SDS011;75162;42.120;21.734;2024-02-26T07:19:59;10.73;;;5.43;;
84897;SDS011;75162;42.120;21.734;2024-02-26T07:22:25;9.00;;;5.78;;
84897;SDS011;75162;42.120;21.734;2024-02-26T07:24:51;9.77;;;4.72;;
84897;SDS011;75162;42.120;21.734;2024-02-26T07:27:20;6.75;;;4.82;;
84897;SDS011;75162;42.120;21.734;2024-02-26T07:29:46;8.05;;;4.70;;
84897;SDS011;75162;42.120;21.734;2024-02-26T07:32:13;8.63;;;4.97;;
84897;SDS011;75162;42.120;21.734;2024-02-26T07:34:39;7.60;;;4.50;;
84897;SDS011;75162;42.120;21.734;2024-02-26T07:37:09;8.50;;;5.15;;
84897;SDS011;75162;42.120;21.734;2024-02-26T07:39:36;9.07;;;4.95;;
84897;SDS011;75162;42.120;21.734;2024-02-26T07:42:02;7.82;;;4.75;;
84897;SDS011;75162;42.120;21.734;2024-02-26T07:44:28;10.20;;;5.22;;
84897;SDS011;75162;42.120;21.734;2024-02-26T07:46:54;9.98;;;5.35;;
84897;SDS011;75162;42.120;21.734;2024-02-26T07:49:20;9.05;;;4.55;;
84897;SDS011;75162;42.120;21.734;2024-02-26T07:51:47;12.82;;;5.80;;
84897;SDS011;75162;42.120;21.734;2024-02-26T07:54:13;9.77;;;4.85;;
84897;SDS011;75162;42.120;21.734;2024-02-26T07:56:41;10.15;;;6.93;;
84897;SDS011;75162;42.120;21.734;2024-02-26T07:59:07;8.80;;;4.75;;
84897;SDS011;75162;42.120;21.734;2024-02-26T08:01:34;6.43;;;3.63;;
84897;SDS011;75162;42.120;21.734;2024-02-26T08:04:04;8.57;;;5.55;;
84897;SDS011;75162;42.120;21.734;2024-02-26T08:06:30;10.65;;;4.93;;
84897;SDS011;75162;42.120;21.734;2024-02-26T08:08:56;8.68;;;4.13;;
84897;SDS011;75162;42.120;21.734;2024-02-26T08:11:22;5.80;;;3.88;;
84897;SDS011;75162;42.120;21.734;2024-02-26T08:13:57;8.82;;;5.43;;
84897;SDS011;75162;42.120;21.734;2024-02-26T08:16:24;8.70;;;4.53;;
84897;SDS011;75162;42.120;21.734;2024-02-26T08:18:50;8.32;;;4.90;;
84897;SDS011;75162;42.120;21.734;2024-02-26T08:21:16;15.18;;;5.70;;
84897;SDS011;75162;42.120;21.734;2024-02-26T08:23:43;5.80;;;3.97;;
84897;SDS011;75162;42.120;21.734;2024-02-26T08:26:09;7.32;;;4.00;;
84897;SDS011;75162;42.120;21.734;2024-02-26T08:28:36;6.68;;;4.40;;
84897;SDS011;75162;42.120;21.734;2024-02-26T08:31:03;6.70;;;4.22;;
84897;SDS011;75162;42.120;21.734;2024-02-26T08:33:29;25.50;;;13.60;;
84897;SDS011;75162;42.120;21.734;2024-02-26T08:35:55;8.15;;;4.85;;
84897;SDS011;75162;42.120;21.734;2024-02-26T08:38:22;9.20;;;4.35;;
84897;SDS011;75162;42.120;21.734;2024-02-26T08:40:48;6.50;;;4.63;;
84897;SDS011;75162;42.120;21.734;2024-02-26T08:43:14;9.63;;;4.82;;
84897;SDS011;75162;42.120;21.734;2024-02-26T08:45:40;9.43;;;4.63;;
84897;SDS011;75162;42.120;21.734;2024-02-26T08:48:07;7.82;;;4.00;;
84897;SDS011;75162;42.120;21.734;2024-02-26T08:50:33;17.10;;;4.57;;
84897;SDS011;75162;42.120;21.734;2024-02-26T08:52:59;11.27;;;4.43;;
84897;SDS011;75162;42.120;21.734;2024-02-26T08:55:29;7.50;;;4.40;;
84897;SDS011;75162;42.120;21.734;2024-02-26T08:57:55;7.75;;;4.18;;
84897;SDS011;75162;42.120;21.734;2024-02-26T09:00:22;7.53;;;4.22;;
84897;SDS011;75162;42.120;21.734;2024-02-26T09:02:48;9.93;;;4.10;;
84897;SDS011;75162;42.120;21.734;2024-02-26T09:05:14;8.23;;;4.90;;
84897;SDS011;75162;42.120;21.734;2024-02-26T09:07:40;8.98;;;3.67;;
84897;SDS011;75162;42.120;21.734;2024-02-26T09:10:07;6.20;;;4.13;;
84897;SDS011;75162;42.120;21.734;2024-02-26T09:12:39;9.10;;;3.55;;
84897;SDS011;75162;42.120;21.734;2024-02-26T09:15:06;18.92;;;5.22;;
84897;SDS011;75162;42.120;21.734;2024-02-26T09:17:32;9.77;;;4.47;;
84897;SDS011;75162;42.120;21.734;2024-02-26T09:19:58;8.10;;;4.20;;
84897;SDS011;75162;42.120;21.734;2024-02-26T09:22:25;9.82;;;3.80;;
84897;SDS011;75162;42.120;21.734;2024-02-26T09:24:51;6.35;;;4.47;;
84897;SDS011;75162;42.120;21.734;2024-02-26T09:27:18;6.80;;;3.28;;
84897;SDS011;75162;42.120;21.734;2024-02-26T09:29:44;6.65;;;3.42;;
84897;SDS011;75162;42.120;21.734;2024-02-26T09:32:11;5.05;;;3.28;;
84897;SDS011;75162;42.120;21.734;2024-02-26T09:34:39;6.47;;;3.13;;
84897;SDS011;75162;42.120;21.734;2024-02-26T09:37:05;8.40;;;3.45;;
84897;SDS011;75162;42.120;21.734;2024-02-26T09:39:31;7.93;;;3.33;;
84897;SDS011;75162;42.120;21.734;2024-02-26T09:41:57;7.85;;;2.85;;
84897;SDS011;75162;42.120;21.734;2024-02-26T09:44:24;6.25;;;3.13;;
84897;SDS011;75162;42.120;21.734;2024-02-26T09:46:51;6.95;;;2.95;;
84897;SDS011;75162;42.120;21.734;2024-02-26T09:49:19;7.20;;;2.78;;
84897;SDS011;75162;42.120;21.734;2024-02-26T09:51:47;8.27;;;2.53;;
84897;SDS011;75162;42.120;21.734;2024-02-26T09:54:14;14.18;;;2.90;;
84897;SDS011;75162;42.120;21.734;2024-02-26T09:56:41;7.63;;;2.53;;
84897;SDS011;75162;42.120;21.734;2024-02-26T09:59:15;8.98;;;3.22;;
84897;SDS011;75162;42.120;21.734;2024-02-26T10:01:42;5.25;;;2.38;;
84897;SDS011;75162;42.120;21.734;2024-02-26T10:04:10;6.05;;;2.15;;
84897;SDS011;75162;42.120;21.734;2024-02-26T10:06:37;6.63;;;2.53;;
84897;SDS011;75162;42.120;21.734;2024-02-26T10:09:03;38.58;;;26.00;;
84897;SDS011;75162;42.120;21.734;2024-02-26T10:11:32;7.80;;;2.58;;
84897;SDS011;75162;42.120;21.734;2024-02-26T10:13:58;4.45;;;2.45;;
84897;SDS011;75162;42.120;21.734;2024-02-26T10:16:25;9.13;;;3.00;;
84897;SDS011;75162;42.120;21.734;2024-02-26T10:18:52;4.97;;;2.55;;
84897;SDS011;75162;42.120;21.734;2024-02-26T10:21:21;6.72;;;2.92;;
84897;SDS011;75162;42.120;21.734;2024-02-26T10:23:48;4.10;;;2.13;;
84897;SDS011;75162;42.120;21.734;2024-02-26T10:26:15;3.90;;;2.40;;
84897;SDS011;75162;42.120;21.734;2024-02-26T10:28:44;5.43;;;1.92;;
84897;SDS011;75162;42.120;21.734;2024-02-26T10:31:11;4.07;;;2.42;;
84897;SDS011;75162;42.120;21.734;2024-02-26T10:33:38;4.25;;;2.00;;
84897;SDS011;75162;42.120;21.734;2024-02-26T10:36:04;5.38;;;2.03;;
84897;SDS011;75162;42.120;21.734;2024-02-26T10:38:31;4.82;;;2.08;;
84897;SDS011;75162;42.120;21.734;2024-02-26T10:40:58;8.02;;;2.20;;
84897;SDS011;75162;42.120;21.734;2024-02-26T10:43:27;2.70;;;1.70;;
84897;SDS011;75162;42.120;21.734;2024-02-26T10:45:56;4.05;;;2.45;;
84897;SDS011;75162;42.120;21.734;2024-02-26T10:48:23;5.25;;;1.55;;
84897;SDS011;75162;42.120;21.734;2024-02-26T10:50:49;2.67;;;1.90;;
84897;SDS011;75162;42.120;21.734;2024-02-26T10:53:25;3.05;;;1.67;;
84897;SDS011;75162;42.120;21.734;2024-02-26T10:55:54;2.17;;;1.00;;
84897;SDS011;75162;42.120;21.734;2024-02-26T10:58:21;4.43;;;1.40;;
84897;SDS011;75162;42.120;21.734;2024-02-26T11:00:49;3.83;;;2.05;;
84897;SDS011;75162;42.120;21.734;2024-02-26T11:03:15;3.30;;;1.25;;
84897;SDS011;75162;42.120;21.734;2024-02-26T11:05:43;4.25;;;1.52;;
84897;SDS011;75162;42.120;21.734;2024-02-26T11:08:10;4.22;;;1.55;;
84897;SDS011;75162;42.120;21.734;2024-02-26T11:10:37;3.42;;;1.30;;
84897;SDS011;75162;42.120;21.734;2024-02-26T11:13:04;3.83;;;1.40;;
84897;SDS011;75162;42.120;21.734;2024-02-26T11:15:31;3.65;;;1.42;;
84897;SDS011;75162;42.120;21.734;2024-02-26T11:17:58;3.85;;;1.50;;
84897;SDS011;75162;42.120;21.734;2024-02-26T11:20:25;1.90;;;1.02;;
84897;SDS011;75162;42.120;21.734;2024-02-26T11:22:54;5.07;;;1.92;;
84897;SDS011;75162;42.120;21.734;2024-02-26T11:25:21;3.08;;;1.40;;
84897;SDS011;75162;42.120;21.734;2024-02-26T11:27:49;5.68;;;1.50;;
84897;SDS011;75162;42.120;21.734;2024-02-26T11:30:16;7.85;;;1.42;;
84897;SDS011;75162;42.120;21.734;2024-02-26T11:32:46;7.93;;;2.00;;
84897;SDS011;75162;42.120;21.734;2024-02-26T11:35:12;3.70;;;1.33;;
84897;SDS011;75162;42.120;21.734;2024-02-26T11:37:41;6.63;;;1.50;;
84897;SDS011;75162;42.120;21.734;2024-02-26T11:40:13;8.15;;;1.70;;
84897;SDS011;75162;42.120;21.734;2024-02-26T11:42:43;3.85;;;1.27;;
84897;SDS011;75162;42.120;21.734;2024-02-26T11:47:58;2.92;;;1.80;;
84897;SDS011;75162;42.120;21.734;2024-02-26T11:50:34;3.83;;;1.63;;
84897;SDS011;75162;42.120;21.734;2024-02-26T11:53:20;5.57;;;1.40;;
84897;SDS011;75162;42.120;21.734;2024-02-26T11:55:46;2.90;;;1.40;;
84897;SDS011;75162;42.120;21.734;2024-02-26T11:58:12;3.38;;;1.50;;
84897;SDS011;75162;42.120;21.734;2024-02-26T12:00:42;4.65;;;1.65;;
84897;SDS011;75162;42.120;21.734;2024-02-26T12:03:08;5.88;;;2.15;;
84897;SDS011;75162;42.120;21.734;2024-02-26T12:05:36;7.88;;;3.83;;
84897;SDS011;75162;42.120;21.734;2024-02-26T12:08:04;4.80;;;2.47;;
84897;SDS011;75162;42.120;21.734;2024-02-26T12:10:37;3.58;;;1.58;;
84897;SDS011;75162;42.120;21.734;2024-02-26T12:15:33;4.65;;;2.63;;
84897;SDS011;75162;42.120;21.734;2024-02-26T12:18:04;9.75;;;3.40;;
84897;SDS011;75162;42.120;21.734;2024-02-26T12:20:31;5.00;;;2.30;;
84897;SDS011;75162;42.120;21.734;2024-02-26T12:22:57;9.32;;;2.40;;
84897;SDS011;75162;42.120;21.734;2024-02-26T12:25:24;4.53;;;1.50;;
84897;SDS011;75162;42.120;21.734;2024-02-26T12:27:53;3.65;;;1.40;;
84897;SDS011;75162;42.120;21.734;2024-02-26T12:30:20;3.72;;;1.63;;
84897;SDS011;75162;42.120;21.734;2024-02-26T12:32:47;4.57;;;2.10;;
84897;SDS011;75162;42.120;21.734;2024-02-26T12:35:13;5.38;;;1.75;;
84897;SDS011;75162;42.120;21.734;2024-02-26T12:37:41;4.60;;;2.05;;
84897;SDS011;75162;42.120;21.734;2024-02-26T12:40:10;5.95;;;1.90;;
84897;SDS011;75162;42.120;21.734;2024-02-26T12:42:37;9.85;;;3.15;;
84897;SDS011;75162;42.120;21.734;2024-02-26T12:45:07;6.10;;;3.35;;
84897;SDS011;75162;42.120;21.734;2024-02-26T12:47:44;4.03;;;1.60;;
84897;SDS011;75162;42.120;21.734;2024-02-26T12:50:15;8.38;;;3.78;;
84897;SDS011;75162;42.120;21.734;2024-02-26T12:52:44;4.03;;;2.20;;
84897;SDS011;75162;42.120;21.734;2024-02-26T12:55:12;8.93;;;3.28;;
84897;SDS011;75162;42.120;21.734;2024-02-26T12:57:39;4.18;;;1.63;;
84897;SDS011;75162;42.120;21.734;2024-02-26T13:00:08;16.58;;;7.05;;
84897;SDS011;75162;42.120;21.734;2024-02-26T13:02:37;13.27;;;3.72;;
84897;SDS011;75162;42.120;21.734;2024-02-26T13:05:03;12.20;;;5.03;;
84897;SDS011;75162;42.120;21.734;2024-02-26T13:07:35;12.40;;;3.72;;
84897;SDS011;75162;42.120;21.734;2024-02-26T13:10:06;4.22;;;1.85;;
84897;SDS011;75162;42.120;21.734;2024-02-26T13:12:33;7.30;;;2.22;;
84897;SDS011;75162;42.120;21.734;2024-02-26T13:15:02;5.90;;;2.92;;
84897;SDS011;75162;42.120;21.734;2024-02-26T13:17:32;7.82;;;3.00;;
84897;SDS011;75162;42.120;21.734;2024-02-26T13:19:59;9.10;;;2.83;;
84897;SDS011;75162;42.120;21.734;2024-02-26T13:22:25;8.15;;;2.53;;
84897;SDS011;75162;42.120;21.734;2024-02-26T13:24:55;8.13;;;2.83;;
84897;SDS011;75162;42.120;21.734;2024-02-26T13:27:24;9.80;;;2.47;;
84897;SDS011;75162;42.120;21.734;2024-02-26T13:32:33;7.13;;;2.83;;
84897;SDS011;75162;42.120;21.734;2024-02-26T13:35:06;7.82;;;3.20;;
84897;SDS011;75162;42.120;21.734;2024-02-26T13:37:36;8.63;;;3.28;;
84897;SDS011;75162;42.120;21.734;2024-02-26T13:40:08;6.22;;;2.53;;
84897;SDS011;75162;42.120;21.734;2024-02-26T13:42:35;4.85;;;2.78;;
84897;SDS011;75162;42.120;21.734;2024-02-26T13:45:02;4.78;;;3.25;;
84897;SDS011;75162;42.120;21.734;2024-02-26T13:47:30;15.57;;;9.70;;
84897;SDS011;75162;42.120;21.734;2024-02-26T13:49:56;8.43;;;2.80;;
84897;SDS011;75162;42.120;21.734;2024-02-26T13:52:23;9.68;;;2.65;;
84897;SDS011;75162;42.120;21.734;2024-02-26T13:54:50;10.27;;;3.95;;
84897;SDS011;75162;42.120;21.734;2024-02-26T13:57:17;6.13;;;2.97;;
84897;SDS011;75162;42.120;21.734;2024-02-26T13:59:43;6.43;;;2.55;;
84897;SDS011;75162;42.120;21.734;2024-02-26T14:02:10;5.72;;;2.55;;
84897;SDS011;75162;42.120;21.734;2024-02-26T14:04:36;4.72;;;2.40;;
84897;SDS011;75162;42.120;21.734;2024-02-26T14:07:03;13.63;;;2.90;;
84897;SDS011;75162;42.120;21.734;2024-02-26T14:09:29;6.57;;;2.80;;
84897;SDS011;75162;42.120;21.734;2024-02-26T14:11:57;5.97;;;3.25;;
84897;SDS011;75162;42.120;21.734;2024-02-26T14:14:24;8.50;;;4.03;;
84897;SDS011;75162;42.120;21.734;2024-02-26T14:16:51;7.88;;;4.25;;
84897;SDS011;75162;42.120;21.734;2024-02-26T14:19:17;10.90;;;4.78;;
84897;SDS011;75162;42.120;21.734;2024-02-26T14:21:43;9.65;;;4.60;;
84897;SDS011;75162;42.120;21.734;2024-02-26T14:24:09;11.38;;;4.55;;
84897;SDS011;75162;42.120;21.734;2024-02-26T14:26:36;13.80;;;4.50;;
84897;SDS011;75162;42.120;21.734;2024-02-26T14:29:02;17.80;;;3.90;;
84897;SDS011;75162;42.120;21.734;2024-02-26T14:31:28;16.92;;;5.22;;
84897;SDS011;75162;42.120;21.734;2024-02-26T14:33:54;21.35;;;4.35;;